createdAt,value
2023-09-27T00:03:51.960Z,6.67
2023-09-27T00:08:55.503Z,6.60
2023-09-27T00:13:59.181Z,7.13
2023-09-27T00:19:04.662Z,8.03
2023-09-27T00:24:08.311Z,7.23
2023-09-27T00:29:12.011Z,8.57
2023-09-27T00:34:16.851Z,8.23
2023-09-27T00:39:20.376Z,9.77
2023-09-27T00:44:23.865Z,7.87
2023-09-27T00:49:28.818Z,11.60
2023-09-27T00:54:33.289Z,6.80
2023-09-27T00:59:37.074Z,5.33
2023-09-27T01:04:42.298Z,5.83
2023-09-27T01:09:46.948Z,7.70
2023-09-27T01:14:52.089Z,8.17
2023-09-27T01:19:57.218Z,7.63
2023-09-27T01:25:02.884Z,6.10
2023-09-27T01:30:08.138Z,5.07
2023-09-27T01:35:11.752Z,7.67
2023-09-27T01:40:19.091Z,5.50
2023-09-27T01:45:22.451Z,8.10
2023-09-27T01:50:26.553Z,7.03
2023-09-27T01:55:31.545Z,9.63
2023-09-27T02:00:35.219Z,5.80
2023-09-27T02:05:38.882Z,5.73
2023-09-27T02:10:43.830Z,6.40
2023-09-27T02:15:47.356Z,5.37
2023-09-27T02:20:51.505Z,5.53
2023-09-27T02:26:00.240Z,5.53
2023-09-27T02:31:04.667Z,6.87
2023-09-27T02:36:08.383Z,7.83
2023-09-27T02:41:13.432Z,5.83
2023-09-27T02:46:18.084Z,7.17
2023-09-27T02:51:21.542Z,5.17
2023-09-27T02:56:28.014Z,7.27
2023-09-27T03:01:31.679Z,8.53
2023-09-27T03:06:36.490Z,9.10
2023-09-27T03:11:43.430Z,6.13
2023-09-27T03:16:47.418Z,6.10
2023-09-27T03:21:50.846Z,9.57
2023-09-27T03:26:55.802Z,8.50
2023-09-27T03:31:59.294Z,6.77
2023-09-27T03:37:02.705Z,8.30
2023-09-27T03:42:07.832Z,7.20
2023-09-27T03:47:11.910Z,9.97
2023-09-27T03:52:15.754Z,8.37
2023-09-27T03:57:21.155Z,7.37
2023-09-27T04:02:24.635Z,9.77
2023-09-27T04:07:28.065Z,7.17
2023-09-27T04:12:33.131Z,7.00
2023-09-27T04:17:36.938Z,6.87
2023-09-27T04:22:40.337Z,5.97
2023-09-27T04:27:46.925Z,5.70
2023-09-27T04:32:53.002Z,5.27
2023-09-27T04:37:57.626Z,7.23
2023-09-27T04:43:03.283Z,5.57
2023-09-27T04:48:09.792Z,7.70
2023-09-27T04:53:15.988Z,10.27
2023-09-27T04:58:20.908Z,10.67
2023-09-27T05:03:24.946Z,10.70
2023-09-27T05:08:31.136Z,10.40
2023-09-27T05:13:35.788Z,10.27
2023-09-27T05:18:39.087Z,11.77
2023-09-27T05:23:42.414Z,17.33
2023-09-27T05:28:50.131Z,11.10
2023-09-27T05:33:53.400Z,10.33
2023-09-27T05:38:56.772Z,15.07
2023-09-27T05:44:01.487Z,29.53
2023-09-27T05:49:06.373Z,26.90
2023-09-27T05:54:10.200Z,23.53
2023-09-27T05:59:15.923Z,19.83
2023-09-27T06:04:19.374Z,16.80
2023-09-27T06:09:24.243Z,17.87
2023-09-27T06:14:29.560Z,15.27
2023-09-27T06:19:33.145Z,16.00
2023-09-27T06:24:36.431Z,15.30
2023-09-27T06:29:41.508Z,13.60
2023-09-27T06:34:45.469Z,12.97
2023-09-27T06:39:48.952Z,11.03
2023-09-27T06:44:53.716Z,10.27
2023-09-27T06:49:57.574Z,13.13
2023-09-27T06:55:01.001Z,9.33
2023-09-27T07:00:10.223Z,10.80
2023-09-27T07:05:13.588Z,8.30
2023-09-27T07:10:16.943Z,8.80
2023-09-27T07:15:21.828Z,6.03
2023-09-27T07:20:29.222Z,5.47
2023-09-27T07:25:35.703Z,6.73
2023-09-27T07:30:40.255Z,6.77
2023-09-27T07:35:45.348Z,11.00
2023-09-27T07:40:49.035Z,9.20
2023-09-27T07:45:56.191Z,7.37
2023-09-27T07:51:00.179Z,7.03
2023-09-27T07:56:03.961Z,7.97
2023-09-27T08:01:08.625Z,6.77
2023-09-27T08:06:12.709Z,7.93
2023-09-27T08:11:16.082Z,8.40
2023-09-27T08:16:21.036Z,10.00
2023-09-27T08:21:24.411Z,8.03
2023-09-27T08:26:27.874Z,9.67
2023-09-27T08:31:36.148Z,8.13
2023-09-27T08:36:39.577Z,6.50
2023-09-27T08:41:42.883Z,6.30
2023-09-27T08:46:47.864Z,5.33
2023-09-27T08:51:52.785Z,7.07
2023-09-27T08:56:57.032Z,7.67
2023-09-27T09:02:01.843Z,6.27
2023-09-27T09:07:07.291Z,9.63
2023-09-27T09:12:11.138Z,6.35
2023-09-27T09:17:19.852Z,6.80
2023-09-27T09:22:23.187Z,8.52
2023-09-27T09:27:26.413Z,6.75
2023-09-27T09:32:31.718Z,6.13
2023-09-27T09:37:36.467Z,6.30
2023-09-27T09:42:39.789Z,7.03
2023-09-27T09:47:45.652Z,6.65
2023-09-27T09:52:53.052Z,7.88
2023-09-27T09:58:00.942Z,5.78
2023-09-27T10:03:07.273Z,7.40
2023-09-27T10:08:10.973Z,5.63
2023-09-27T10:13:15.455Z,6.45
2023-09-27T10:18:34.728Z,5.07
2023-09-27T10:23:39.186Z,5.70
2023-09-27T10:28:57.409Z,6.00
2023-09-27T10:34:02.139Z,4.03
2023-09-27T10:39:06.631Z,3.50
2023-09-27T10:44:10.106Z,3.75
2023-09-27T10:49:21.447Z,2.75
2023-09-27T10:54:25.083Z,3.15
2023-09-27T10:59:28.863Z,3.97
2023-09-27T11:04:34.841Z,2.63
2023-09-27T11:09:44.868Z,2.88
2023-09-27T11:14:48.758Z,3.55
2023-09-27T11:19:54.031Z,3.03
2023-09-27T11:24:57.446Z,3.83
2023-09-27T11:30:01.121Z,2.78
2023-09-27T11:35:06.303Z,3.15
2023-09-27T11:40:10.275Z,3.97
2023-09-27T11:45:14.763Z,2.83
2023-09-27T11:50:20.451Z,2.60
2023-09-27T11:55:23.796Z,3.80
2023-09-27T12:00:27.458Z,3.50
2023-09-27T12:05:32.352Z,3.47
2023-09-27T12:10:36.079Z,3.30
2023-09-27T12:15:39.457Z,2.83
2023-09-27T12:20:47.501Z,3.28
2023-09-27T12:25:53.590Z,3.58
2023-09-27T12:30:56.907Z,6.03
2023-09-27T12:36:01.662Z,4.70
2023-09-27T12:41:06.226Z,5.47
2023-09-27T12:46:10.437Z,5.40
2023-09-27T12:51:15.132Z,4.78
2023-09-27T12:56:19.093Z,5.68
2023-09-27T13:01:22.459Z,4.22
2023-09-27T13:06:27.119Z,5.35
2023-09-27T13:11:30.538Z,3.53
2023-09-27T13:16:33.949Z,2.83
2023-09-27T13:21:38.698Z,4.40
2023-09-27T13:26:42.055Z,5.68
2023-09-27T13:31:45.785Z,5.00
2023-09-27T13:36:51.023Z,2.53
2023-09-27T13:41:54.416Z,4.30
2023-09-27T13:46:57.770Z,6.28
2023-09-27T13:52:02.850Z,2.83
2023-09-27T13:57:08.253Z,2.33
2023-09-27T14:02:15.779Z,4.35
2023-09-27T14:07:20.506Z,3.35
2023-09-27T14:12:24.021Z,3.25
2023-09-27T14:17:28.570Z,6.22
2023-09-27T14:22:33.312Z,7.55
2023-09-27T14:27:36.533Z,2.40
2023-09-27T14:32:40.704Z,3.22
2023-09-27T14:37:45.558Z,4.22
2023-09-27T14:42:48.929Z,4.68
2023-09-27T14:47:53.246Z,2.80
2023-09-27T14:52:58.057Z,4.15
2023-09-27T14:58:02.598Z,2.70
2023-09-27T15:03:06.264Z,2.40
2023-09-27T15:08:11.182Z,7.90
2023-09-27T15:13:15.194Z,5.05
2023-09-27T15:18:19.254Z,3.53
2023-09-27T15:23:23.969Z,3.60
2023-09-27T15:28:27.417Z,4.85
2023-09-27T15:33:30.747Z,4.78
2023-09-27T15:38:35.957Z,4.45
2023-09-27T15:43:39.673Z,3.95
2023-09-27T15:48:44.851Z,4.80
2023-09-27T15:53:52.733Z,4.22
2023-09-27T15:59:00.858Z,3.75
2023-09-27T16:04:05.376Z,4.37
2023-09-27T16:09:11.887Z,4.43
2023-09-27T16:14:15.307Z,3.90
2023-09-27T16:19:18.857Z,5.63
2023-09-27T16:24:23.645Z,4.03
2023-09-27T16:29:27.268Z,4.67
2023-09-27T16:34:30.593Z,5.23
2023-09-27T16:39:35.778Z,7.30
2023-09-27T16:44:39.404Z,7.33
2023-09-27T16:49:42.631Z,7.00
2023-09-27T16:54:48.468Z,6.43
2023-09-27T16:59:52.421Z,7.93
2023-09-27T17:04:55.726Z,5.50
2023-09-27T17:10:00.350Z,7.50
2023-09-27T17:15:04.242Z,5.60
2023-09-27T17:20:10.097Z,6.40
2023-09-27T17:25:15.053Z,11.20
2023-09-27T17:30:20.728Z,8.37
2023-09-27T17:35:24.534Z,13.93
2023-09-27T17:40:29.238Z,13.23
2023-09-27T17:45:32.901Z,16.40
2023-09-27T17:50:37.111Z,11.40
2023-09-27T17:55:41.981Z,12.60
2023-09-27T18:00:45.295Z,8.63
2023-09-27T18:05:48.605Z,11.03
2023-09-27T18:10:53.656Z,9.90
2023-09-27T18:15:57.062Z,10.97
2023-09-27T18:21:00.338Z,10.90
2023-09-27T18:26:05.220Z,8.00
2023-09-27T18:31:08.795Z,8.13
2023-09-27T18:36:12.568Z,8.87
2023-09-27T18:41:17.839Z,8.07
2023-09-27T18:46:21.673Z,6.90
2023-09-27T18:51:27.281Z,8.10
2023-09-27T18:56:35.393Z,11.90
2023-09-27T19:01:39.116Z,11.87
2023-09-27T19:06:42.744Z,11.40
2023-09-27T19:11:49.235Z,10.93
2023-09-27T19:16:52.640Z,11.37
2023-09-27T19:21:56.545Z,12.97
2023-09-27T19:27:01.686Z,10.53
2023-09-27T19:32:05.356Z,10.67
2023-09-27T19:37:08.834Z,9.70
2023-09-27T19:42:15.252Z,12.50
2023-09-27T19:47:18.654Z,14.23
2023-09-27T19:52:22.512Z,18.90
2023-09-27T19:57:27.396Z,16.87
2023-09-27T20:02:30.840Z,17.07
2023-09-27T20:07:34.195Z,16.67
2023-09-27T20:12:39.377Z,14.77
2023-09-27T20:17:42.919Z,13.47
2023-09-27T20:22:46.286Z,13.97
2023-09-27T20:27:51.112Z,16.23
2023-09-27T20:32:54.539Z,14.83
2023-09-27T20:37:58.276Z,18.50
2023-09-27T20:43:04.834Z,13.63
2023-09-27T20:48:08.679Z,14.23
2023-09-27T20:53:12.218Z,17.10
2023-09-27T20:58:17.487Z,19.20
2023-09-27T21:03:20.987Z,16.77
2023-09-27T21:08:24.553Z,19.63
2023-09-27T21:13:29.638Z,19.43
2023-09-27T21:18:33.124Z,18.27
2023-09-27T21:23:36.479Z,21.97
2023-09-27T21:28:41.897Z,23.10
2023-09-27T21:33:45.862Z,20.63
2023-09-27T21:38:49.576Z,21.50
2023-09-27T21:43:54.872Z,19.33
2023-09-27T21:48:58.518Z,20.50
2023-09-27T21:54:01.991Z,18.40
2023-09-27T21:59:07.150Z,16.27
2023-09-27T22:04:12.242Z,15.77
2023-09-27T22:09:15.509Z,14.67
2023-09-27T22:14:21.448Z,17.17
2023-09-27T22:19:29.016Z,13.13
2023-09-27T22:24:33.508Z,14.47
2023-09-27T22:29:39.993Z,14.10
2023-09-27T22:34:43.556Z,15.07
2023-09-27T22:39:48.110Z,16.73
2023-09-27T22:44:57.007Z,14.67
2023-09-27T22:50:04.060Z,14.27
2023-09-27T22:55:07.967Z,16.37
2023-09-27T23:00:14.090Z,14.27
2023-09-27T23:05:29.211Z,12.70
2023-09-27T23:10:37.532Z,15.73
2023-09-27T23:15:42.709Z,14.57
2023-09-27T23:20:46.151Z,14.63
2023-09-27T23:25:55.904Z,14.70
2023-09-27T23:31:09.968Z,14.97
2023-09-27T23:36:24.743Z,12.83
2023-09-27T23:41:31.454Z,11.60
2023-09-27T23:46:39.988Z,15.60
2023-09-27T23:51:44.370Z,13.07
2023-09-27T23:56:47.897Z,10.23
